Time;durP1;ratioP1;P1;durP2;ratioP2;P2;SDS_P1;SDS_P2;PMS_P1;PMS_P2;Temp;Humidity;BMP_temperature;BMP_pressure;BME280_temperature;BME280_humidity;BME280_pressure;Samples;Min_cycle;Max_cycle;Signal;HPM_P1;HPM_P2
2024/01/14 00:01:55;;;;;;;128.95;49.08;;;3.70;99.90;;;;;;5045388;28;20033;-72
2024/01/14 00:04:21;;;;;;;136.02;49.05;;;3.70;99.90;;;;;;5044851;28;20013;-72
2024/01/14 00:06:46;;;;;;;133.65;48.60;;;3.70;99.90;;;;;;5045462;28;20112;-72
2024/01/14 00:09:12;;;;;;;123.80;47.75;;;3.70;99.90;;;;;;5047464;28;20449;-72
2024/01/14 00:11:39;;;;;;;125.10;48.05;;;3.70;99.90;;;;;;5042343;28;20032;-73
2024/01/14 00:14:04;;;;;;;128.00;46.95;;;3.80;99.90;;;;;;5048682;28;20531;-72
2024/01/14 00:16:34;;;;;;;123.32;46.80;;;3.70;99.90;;;;;;5049107;28;20021;-72
2024/01/14 00:19:05;;;;;;;138.48;49.80;;;3.70;99.90;;;;;;5043828;28;20108;-72
2024/01/14 00:21:31;;;;;;;135.60;46.33;;;3.90;99.90;;;;;;5043635;28;20072;-72
2024/01/14 00:23:56;;;;;;;127.78;46.10;;;3.70;99.90;;;;;;5047128;28;20442;-72
2024/01/14 00:26:27;;;;;;;132.68;47.35;;;3.70;99.90;;;;;;5046875;28;20029;-73
2024/01/14 00:28:57;;;;;;;128.80;48.40;;;3.70;99.90;;;;;;5044979;28;20025;-72
2024/01/14 00:31:23;;;;;;;123.40;44.47;;;3.70;99.90;;;;;;5035555;28;20112;-72
2024/01/14 00:33:50;;;;;;;131.15;47.45;;;3.80;99.90;;;;;;5043984;28;20484;-72
2024/01/14 00:36:16;;;;;;;125.53;47.25;;;3.70;99.90;;;;;;5036751;28;20124;-72
2024/01/14 00:38:42;;;;;;;123.90;45.97;;;3.90;99.90;;;;;;5042546;28;20482;-72
2024/01/14 00:41:08;;;;;;;128.65;46.55;;;3.90;99.90;;;;;;5047325;28;20029;-73
2024/01/14 00:43:34;;;;;;;127.80;46.42;;;4.00;99.90;;;;;;5049656;28;20025;-72
2024/01/14 00:46:00;;;;;;;123.93;45.53;;;3.90;99.90;;;;;;5048239;28;20044;-72
2024/01/14 00:48:28;;;;;;;135.23;47.22;;;3.90;99.90;;;;;;5047179;28;20474;-72
2024/01/14 00:50:54;;;;;;;122.72;45.10;;;3.90;99.90;;;;;;5050255;28;20059;-73
2024/01/14 00:53:20;;;;;;;125.55;46.08;;;3.80;99.90;;;;;;5045836;28;20017;-72
2024/01/14 00:55:45;;;;;;;117.30;44.97;;;3.90;99.90;;;;;;5048337;28;20020;-72
2024/01/14 00:58:11;;;;;;;118.05;43.42;;;3.90;99.90;;;;;;5047032;28;20044;-73
2024/01/14 01:00:37;;;;;;;133.75;45.50;;;3.80;99.90;;;;;;5043395;28;20024;-73
2024/01/14 01:03:03;;;;;;;119.38;44.45;;;3.80;99.90;;;;;;5046402;28;20025;-72
2024/01/14 01:05:29;;;;;;;118.00;44.35;;;3.80;99.90;;;;;;5047083;28;20024;-73
2024/01/14 01:07:54;;;;;;;119.63;44.92;;;3.90;99.90;;;;;;5050226;28;20074;-71
2024/01/14 01:10:20;;;;;;;128.27;45.53;;;3.90;99.90;;;;;;5040663;28;20068;-72
2024/01/14 01:12:46;;;;;;;119.60;44.45;;;3.80;99.90;;;;;;5043245;28;20519;-72
2024/01/14 01:15:12;;;;;;;118.88;45.05;;;3.90;99.90;;;;;;5047079;28;20021;-72
2024/01/14 01:17:38;;;;;;;131.52;47.00;;;3.80;99.90;;;;;;5046392;28;20032;-72
2024/01/14 01:20:07;;;;;;;113.07;45.55;;;3.90;99.90;;;;;;5042380;28;20037;-72
2024/01/14 01:22:33;;;;;;;127.13;44.45;;;3.80;99.90;;;;;;5049734;28;20057;-73
2024/01/14 01:24:59;;;;;;;126.13;44.90;;;3.80;99.90;;;;;;5043614;28;20028;-72
2024/01/14 01:27:25;;;;;;;124.65;43.67;;;3.90;99.90;;;;;;5041804;28;20048;-72
2024/01/14 01:29:51;;;;;;;122.75;44.58;;;3.80;99.90;;;;;;5046566;28;20461;-72
2024/01/14 01:32:17;;;;;;;126.13;45.08;;;3.80;99.90;;;;;;5050274;28;20032;-72
2024/01/14 01:34:43;;;;;;;124.13;44.42;;;3.80;99.90;;;;;;5044030;28;20070;-72
2024/01/14 01:37:09;;;;;;;131.80;45.58;;;3.70;99.90;;;;;;5045567;28;20052;-72
2024/01/14 01:39:35;;;;;;;115.25;41.33;;;3.70;99.90;;;;;;5049359;28;20068;-72
2024/01/14 01:42:01;;;;;;;123.78;42.72;;;3.60;99.90;;;;;;5045259;28;20397;-72
2024/01/14 01:44:26;;;;;;;116.25;41.65;;;3.60;99.90;;;;;;5045873;28;20017;-71
2024/01/14 01:46:54;;;;;;;117.07;42.75;;;3.60;99.90;;;;;;5040207;28;20027;-72
2024/01/14 01:49:21;;;;;;;121.03;43.47;;;3.50;99.90;;;;;;5045516;28;20507;-73
2024/01/14 01:51:48;;;;;;;126.00;44.88;;;3.50;99.90;;;;;;5045317;28;20032;-72
2024/01/14 01:54:20;;;;;;;124.80;43.95;;;3.50;99.90;;;;;;5041693;28;20030;-72
2024/01/14 01:56:46;;;;;;;128.60;44.35;;;3.60;99.90;;;;;;5050236;28;20023;-72
2024/01/14 01:59:12;;;;;;;121.28;43.00;;;3.60;99.90;;;;;;5041465;28;20064;-72
2024/01/14 02:01:39;;;;;;;119.35;43.45;;;3.70;99.90;;;;;;5047844;28;20034;-72
2024/01/14 02:04:09;;;;;;;125.70;43.80;;;3.60;99.90;;;;;;5054845;28;20383;-72
2024/01/14 02:06:37;;;;;;;133.05;45.30;;;3.70;99.90;;;;;;5047964;28;20053;-72
2024/01/14 02:09:07;;;;;;;121.43;46.20;;;3.70;99.90;;;;;;5047672;28;20114;-72
2024/01/14 02:11:33;;;;;;;121.63;42.05;;;3.70;99.90;;;;;;5045598;28;20027;-72
2024/01/14 02:13:59;;;;;;;122.28;43.22;;;3.70;99.90;;;;;;5047254;28;20017;-72
2024/01/14 02:16:25;;;;;;;125.47;42.97;;;3.80;99.90;;;;;;5047950;28;20465;-73
2024/01/14 02:18:51;;;;;;;120.95;43.38;;;3.80;99.90;;;;;;5046784;28;20135;-73
2024/01/14 02:21:20;;;;;;;127.07;42.30;;;3.70;99.90;;;;;;5046771;28;20036;-72
2024/01/14 02:24:00;;;;;;;117.30;45.10;;;3.70;99.90;;;;;;5049945;28;20046;-72
2024/01/14 02:26:26;;;;;;;121.00;43.70;;;3.70;99.90;;;;;;5044803;28;20096;-72
2024/01/14 02:28:51;;;;;;;118.25;41.05;;;3.70;99.90;;;;;;5045613;28;20566;-72
2024/01/14 02:31:18;;;;;;;126.75;43.75;;;3.60;99.90;;;;;;5047955;28;20381;-72
2024/01/14 02:33:43;;;;;;;120.47;43.53;;;3.60;99.90;;;;;;5047804;28;20033;-72
2024/01/14 02:36:09;;;;;;;127.82;43.00;;;3.60;99.90;;;;;;5045345;28;20155;-72
2024/01/14 02:38:34;;;;;;;128.70;44.20;;;3.60;99.90;;;;;;5056546;28;20029;-72
2024/01/14 02:41:00;;;;;;;113.55;43.95;;;3.60;99.90;;;;;;5047797;28;20511;-72
2024/01/14 02:43:26;;;;;;;125.03;45.83;;;3.60;99.90;;;;;;5048516;28;20025;-72
2024/01/14 02:45:52;;;;;;;117.30;42.95;;;3.50;99.90;;;;;;5056631;28;21549;-72
2024/01/14 02:48:17;;;;;;;129.20;45.60;;;3.60;99.90;;;;;;5049595;28;20029;-72
2024/01/14 02:50:43;;;;;;;126.68;43.50;;;3.60;99.90;;;;;;5053262;28;20021;-72
2024/01/14 02:53:08;;;;;;;117.75;42.45;;;3.60;99.90;;;;;;5049699;28;20118;-72
2024/01/14 02:55:34;;;;;;;127.25;42.40;;;3.60;99.90;;;;;;5048981;28;20748;-72
2024/01/14 02:58:00;;;;;;;126.25;43.22;;;3.70;99.90;;;;;;5048915;28;20024;-72
2024/01/14 03:00:26;;;;;;;120.53;42.72;;;3.60;99.90;;;;;;5045940;28;20486;-72
2024/01/14 03:02:51;;;;;;;119.57;44.40;;;3.60;99.90;;;;;;5049356;28;20401;-72
2024/01/14 03:05:17;;;;;;;122.10;42.28;;;3.60;99.90;;;;;;5052375;28;20017;-73
2024/01/14 03:07:43;;;;;;;116.22;42.38;;;3.60;99.90;;;;;;5048143;28;20385;-73
2024/01/14 03:10:08;;;;;;;117.38;39.97;;;3.60;99.90;;;;;;5050839;28;20024;-72
2024/01/14 03:12:34;;;;;;;120.63;41.75;;;3.60;99.90;;;;;;5047681;28;20475;-72
2024/01/14 03:15:00;;;;;;;115.00;42.83;;;3.60;99.90;;;;;;5043832;28;20025;-73
2024/01/14 03:17:26;;;;;;;116.40;40.58;;;3.60;99.90;;;;;;5049592;28;20059;-72
2024/01/14 03:19:51;;;;;;;115.43;41.80;;;3.70;99.90;;;;;;5050369;28;20025;-73
2024/01/14 03:22:17;;;;;;;121.22;41.28;;;3.70;99.90;;;;;;5048126;28;20557;-72
2024/01/14 03:24:44;;;;;;;122.72;42.03;;;3.70;99.90;;;;;;5047274;28;20017;-72
2024/01/14 03:27:10;;;;;;;104.85;41.28;;;3.80;99.90;;;;;;5048646;28;20025;-72
2024/01/14 03:29:35;;;;;;;120.40;39.85;;;3.70;99.90;;;;;;5045336;28;20017;-72
2024/01/14 03:32:01;;;;;;;118.53;41.10;;;3.70;99.90;;;;;;5051075;28;20020;-72
2024/01/14 03:34:27;;;;;;;120.65;42.28;;;3.60;99.90;;;;;;5045506;28;20028;-72
2024/01/14 03:36:52;;;;;;;117.32;41.28;;;3.60;99.90;;;;;;5047253;28;20025;-73
2024/01/14 03:39:18;;;;;;;122.38;41.97;;;3.70;99.90;;;;;;5049080;28;20121;-73
2024/01/14 03:41:44;;;;;;;115.60;40.20;;;3.70;99.90;;;;;;5044670;28;20726;-72
2024/01/14 03:44:10;;;;;;;119.95;41.65;;;3.70;99.90;;;;;;5050444;28;20488;-72
2024/01/14 03:46:36;;;;;;;126.07;44.40;;;3.70;99.90;;;;;;5039734;28;20121;-72
2024/01/14 03:49:01;;;;;;;123.78;42.30;;;3.60;99.90;;;;;;5047180;28;20061;-73
2024/01/14 03:51:27;;;;;;;118.65;43.25;;;3.50;99.90;;;;;;5049188;28;20509;-72
2024/01/14 03:53:53;;;;;;;117.10;41.88;;;3.50;99.90;;;;;;5046863;28;20509;-72
2024/01/14 03:56:18;;;;;;;122.65;39.80;;;3.40;99.90;;;;;;5051345;28;20029;-72
2024/01/14 03:58:44;;;;;;;120.97;42.60;;;3.30;99.90;;;;;;5046336;28;20032;-72
2024/01/14 04:01:17;;;;;;;118.72;39.00;;;3.30;99.90;;;;;;5045570;28;20440;-72
2024/01/14 04:03:43;;;;;;;119.18;38.75;;;3.30;99.90;;;;;;5046259;28;20021;-72
2024/01/14 04:06:09;;;;;;;113.60;37.40;;;3.30;99.90;;;;;;5048402;28;20022;-72
2024/01/14 04:08:35;;;;;;;123.53;39.90;;;3.20;99.90;;;;;;5043389;28;20426;-72
2024/01/14 04:11:01;;;;;;;113.97;38.08;;;3.20;99.90;;;;;;5051482;28;20017;-72
2024/01/14 04:13:26;;;;;;;115.28;39.00;;;3.10;99.90;;;;;;5051606;28;20044;-72
2024/01/14 04:15:55;;;;;;;119.82;37.33;;;3.20;99.90;;;;;;5044913;28;20025;-72
2024/01/14 04:18:21;;;;;;;113.97;39.03;;;3.20;99.90;;;;;;5045767;28;20111;-72
2024/01/14 04:20:46;;;;;;;114.07;38.55;;;3.20;99.90;;;;;;5043582;28;20565;-72
2024/01/14 04:23:12;;;;;;;108.00;36.00;;;3.20;99.90;;;;;;5048399;28;20021;-72
2024/01/14 04:25:38;;;;;;;129.80;39.50;;;3.20;99.90;;;;;;5046195;28;20453;-72
2024/01/14 04:28:03;;;;;;;116.25;38.40;;;3.20;99.90;;;;;;5046826;28;20025;-72
2024/01/14 04:30:29;;;;;;;118.93;40.85;;;3.20;99.90;;;;;;5050858;28;20088;-72
2024/01/14 04:32:55;;;;;;;114.13;39.55;;;3.20;99.90;;;;;;5042474;28;20477;-72
2024/01/14 04:35:20;;;;;;;113.72;39.40;;;3.20;99.90;;;;;;5046727;28;20066;-72
2024/01/14 04:37:46;;;;;;;116.55;38.17;;;3.20;99.90;;;;;;5048173;28;20354;-72
2024/01/14 04:40:12;;;;;;;117.13;39.45;;;3.10;99.90;;;;;;5051211;28;20645;-72
2024/01/14 04:42:37;;;;;;;115.22;38.42;;;3.20;99.90;;;;;;5045417;28;20029;-72
2024/01/14 04:45:04;;;;;;;113.20;37.90;;;3.10;99.90;;;;;;5042457;28;20025;-72
2024/01/14 04:47:29;;;;;;;118.78;37.85;;;3.10;99.90;;;;;;5045595;28;20060;-72
2024/01/14 04:49:55;;;;;;;116.65;38.28;;;3.20;99.90;;;;;;5045687;28;20395;-72
2024/01/14 04:52:21;;;;;;;117.82;39.90;;;3.10;99.90;;;;;;5045134;28;20406;-72
2024/01/14 04:54:46;;;;;;;102.35;36.90;;;3.10;99.90;;;;;;5049593;28;20021;-72
2024/01/14 04:57:12;;;;;;;121.88;37.00;;;3.10;99.90;;;;;;5049359;28;20036;-72
2024/01/14 04:59:38;;;;;;;124.93;40.72;;;3.10;99.90;;;;;;5050993;28;20462;-72
2024/01/14 05:02:03;;;;;;;116.22;38.15;;;3.20;99.90;;;;;;5039919;28;20682;-72
2024/01/14 05:04:29;;;;;;;131.23;39.95;;;3.20;99.90;;;;;;5049017;28;20113;-72
2024/01/14 05:06:55;;;;;;;103.97;34.63;;;3.20;99.90;;;;;;5042046;28;20032;-72
2024/01/14 05:09:21;;;;;;;118.22;38.20;;;3.30;99.90;;;;;;5044444;28;20053;-72
2024/01/14 05:11:47;;;;;;;107.18;36.88;;;3.30;99.90;;;;;;5048756;28;20111;-72
2024/01/14 05:14:13;;;;;;;124.63;37.72;;;3.30;99.90;;;;;;5046727;28;20021;-72
2024/01/14 05:16:39;;;;;;;131.40;40.15;;;3.30;99.90;;;;;;5051476;28;20032;-72
2024/01/14 05:19:04;;;;;;;129.23;38.55;;;3.30;99.90;;;;;;5047723;28;20477;-72
2024/01/14 05:21:30;;;;;;;121.35;39.47;;;3.30;99.90;;;;;;5044796;28;20375;-72
2024/01/14 05:23:56;;;;;;;122.80;40.42;;;3.20;99.90;;;;;;5040259;28;20703;-72
2024/01/14 05:26:24;;;;;;;127.63;39.10;;;3.20;99.90;;;;;;5039084;28;20545;-71
2024/01/14 05:28:50;;;;;;;119.30;37.10;;;3.30;99.90;;;;;;5042388;28;20025;-72
2024/01/14 05:31:16;;;;;;;106.85;36.38;;;3.20;99.90;;;;;;5045366;28;20025;-72
2024/01/14 05:33:42;;;;;;;118.25;37.80;;;3.20;99.90;;;;;;5043116;28;20025;-72
2024/01/14 05:36:08;;;;;;;120.95;37.28;;;3.10;99.90;;;;;;5038969;28;20053;-72
2024/01/14 05:38:33;;;;;;;127.00;39.33;;;3.20;99.90;;;;;;5048134;28;20398;-71
2024/01/14 05:40:59;;;;;;;119.28;37.20;;;3.10;99.90;;;;;;5041798;28;20031;-72
2024/01/14 05:43:25;;;;;;;108.70;37.05;;;3.10;99.90;;;;;;5044680;28;20030;-72
2024/01/14 05:45:50;;;;;;;109.22;37.25;;;3.10;99.90;;;;;;5042553;28;20021;-72
2024/01/14 05:48:17;;;;;;;112.35;36.90;;;3.10;99.90;;;;;;5039787;28;20445;-72
2024/01/14 05:50:43;;;;;;;112.60;38.10;;;3.00;99.90;;;;;;5040239;28;20051;-72
2024/01/14 05:53:08;;;;;;;130.57;38.78;;;3.10;99.90;;;;;;5042038;28;20483;-72
2024/01/14 05:55:34;;;;;;;118.80;37.75;;;3.10;99.90;;;;;;5041861;28;20397;-72
2024/01/14 05:58:00;;;;;;;116.25;35.35;;;3.10;99.90;;;;;;5044716;28;20426;-72
2024/01/14 06:00:25;;;;;;;107.25;35.60;;;3.10;99.90;;;;;;5041413;28;20039;-72
2024/01/14 06:02:51;;;;;;;122.70;33.22;;;3.10;99.90;;;;;;5042977;28;20028;-72
2024/01/14 06:05:17;;;;;;;117.28;35.42;;;3.10;99.90;;;;;;5050232;28;20045;-72
2024/01/14 06:07:43;;;;;;;98.85;34.53;;;3.10;99.90;;;;;;5047733;28;20031;-72
2024/01/14 06:10:09;;;;;;;110.93;35.22;;;3.10;99.90;;;;;;5045504;28;20036;-72
2024/01/14 06:12:35;;;;;;;104.70;36.17;;;3.10;99.90;;;;;;5042006;28;20108;-72
2024/01/14 06:15:00;;;;;;;112.03;36.15;;;3.10;99.90;;;;;;5043865;28;20167;-72
2024/01/14 06:17:26;;;;;;;99.20;33.67;;;3.10;99.90;;;;;;5038143;28;20029;-72
2024/01/14 06:19:52;;;;;;;115.72;35.97;;;3.10;99.90;;;;;;5043433;28;20036;-72
2024/01/14 06:22:17;;;;;;;103.90;34.28;;;3.10;99.90;;;;;;5048257;28;20502;-72
2024/01/14 06:24:46;;;;;;;105.85;34.65;;;3.10;99.90;;;;;;5042136;28;20032;-72
2024/01/14 06:27:11;;;;;;;106.32;34.05;;;3.10;99.90;;;;;;5038915;28;20037;-72
2024/01/14 06:29:39;;;;;;;111.88;32.90;;;3.10;99.90;;;;;;5041126;28;20034;-72
2024/01/14 06:32:05;;;;;;;110.55;32.25;;;3.10;99.90;;;;;;5041813;28;20389;-72
2024/01/14 06:34:30;;;;;;;103.65;34.80;;;3.00;99.90;;;;;;5040332;28;20017;-72
2024/01/14 06:36:56;;;;;;;114.20;35.58;;;3.00;99.90;;;;;;5045360;28;20053;-72
2024/01/14 06:39:22;;;;;;;111.70;35.30;;;3.10;99.90;;;;;;5038292;28;20039;-72
2024/01/14 06:41:47;;;;;;;118.50;35.88;;;3.00;99.90;;;;;;5042288;28;20500;-71
2024/01/14 06:44:13;;;;;;;100.05;33.63;;;3.00;99.90;;;;;;5050151;28;20497;-72
2024/01/14 06:46:43;;;;;;;115.70;36.92;;;3.00;99.90;;;;;;5054574;28;20021;-72
2024/01/14 06:49:09;;;;;;;106.47;34.08;;;3.00;99.90;;;;;;5041199;28;20025;-71
2024/01/14 06:51:45;;;;;;;102.40;33.10;;;2.90;99.90;;;;;;5042320;28;20025;-72
2024/01/14 06:54:10;;;;;;;106.63;33.78;;;2.80;99.90;;;;;;5046951;28;20493;-71
2024/01/14 06:56:47;;;;;;;119.05;37.05;;;2.90;99.90;;;;;;5047211;28;20017;-71
2024/01/14 06:59:26;;;;;;;103.07;34.78;;;2.90;99.90;;;;;;5048286;28;20021;-71
2024/01/14 07:01:51;;;;;;;110.78;34.90;;;2.90;99.90;;;;;;5042966;28;20037;-71
2024/01/14 07:04:17;;;;;;;121.15;38.85;;;2.90;99.90;;;;;;5043201;28;20044;-71
2024/01/14 07:06:43;;;;;;;96.55;32.20;;;2.90;99.90;;;;;;5049422;28;20474;-71
2024/01/14 07:09:10;;;;;;;124.10;35.90;;;2.90;99.90;;;;;;5043423;28;20363;-71
2024/01/14 07:11:36;;;;;;;113.55;37.22;;;2.90;99.90;;;;;;5049366;28;20028;-72
2024/01/14 07:14:02;;;;;;;104.95;35.08;;;2.90;99.90;;;;;;5041370;28;20072;-71
2024/01/14 07:16:29;;;;;;;105.35;32.95;;;2.90;99.90;;;;;;5043633;28;20027;-72
2024/01/14 07:18:55;;;;;;;111.47;35.60;;;3.00;99.90;;;;;;5051901;28;20032;-72
2024/01/14 07:21:22;;;;;;;103.03;35.22;;;2.90;99.90;;;;;;5046912;28;20038;-72
2024/01/14 07:23:48;;;;;;;104.80;34.33;;;2.90;99.90;;;;;;5042092;28;20112;-72
2024/01/14 07:26:16;;;;;;;100.63;33.90;;;2.90;99.90;;;;;;5043003;28;20029;-72
2024/01/14 07:28:42;;;;;;;100.30;34.67;;;2.90;99.90;;;;;;5041124;28;20017;-72
2024/01/14 07:31:08;;;;;;;88.57;30.75;;;2.90;99.90;;;;;;5043678;28;20025;-72
2024/01/14 07:33:33;;;;;;;86.05;30.77;;;2.90;99.90;;;;;;5042913;28;20029;-72
2024/01/14 07:35:59;;;;;;;104.40;32.38;;;3.00;99.90;;;;;;5046663;28;20021;-72
2024/01/14 07:38:25;;;;;;;110.78;32.50;;;3.00;99.90;;;;;;5039306;28;20528;-72
2024/01/14 07:40:50;;;;;;;101.72;33.13;;;3.00;99.90;;;;;;5041539;28;20029;-72
2024/01/14 07:43:16;;;;;;;102.20;31.45;;;3.00;99.90;;;;;;5040961;28;20029;-72
2024/01/14 07:45:42;;;;;;;107.00;34.42;;;3.10;99.90;;;;;;5045355;28;20028;-72
2024/01/14 07:48:08;;;;;;;108.50;35.88;;;3.10;99.90;;;;;;5042175;28;20465;-72
2024/01/14 07:50:33;;;;;;;101.18;32.30;;;3.10;99.90;;;;;;5043181;28;20370;-72
2024/01/14 07:52:59;;;;;;;114.88;34.30;;;3.10;99.90;;;;;;5043436;28;20082;-71
2024/01/14 07:55:25;;;;;;;93.95;32.40;;;3.00;99.90;;;;;;5042981;28;20025;-72
2024/01/14 07:57:51;;;;;;;109.25;34.50;;;3.00;99.90;;;;;;5043905;28;20493;-72
2024/01/14 08:00:17;;;;;;;111.70;34.50;;;3.00;99.90;;;;;;5042177;28;20017;-72
2024/01/14 08:02:43;;;;;;;109.47;34.10;;;3.10;99.90;;;;;;5046299;28;20044;-72
2024/01/14 08:05:09;;;;;;;101.30;31.63;;;3.10;99.90;;;;;;5043995;28;20025;-72
2024/01/14 08:07:35;;;;;;;86.55;30.50;;;3.00;99.90;;;;;;5043778;28;20040;-72
2024/01/14 08:10:01;;;;;;;92.40;30.75;;;3.00;99.90;;;;;;5040727;28;20373;-72
2024/01/14 08:12:27;;;;;;;98.53;31.20;;;3.00;99.90;;;;;;5039031;28;20474;-71
2024/01/14 08:14:53;;;;;;;110.13;32.22;;;3.00;99.90;;;;;;5038853;28;20052;-72
2024/01/14 08:17:19;;;;;;;96.65;30.45;;;3.00;99.90;;;;;;5042275;28;20025;-71
2024/01/14 08:19:46;;;;;;;110.97;32.60;;;3.00;99.90;;;;;;5037607;28;20378;-72
2024/01/14 08:22:12;;;;;;;94.07;31.80;;;3.10;99.90;;;;;;5044877;28;20049;-72
2024/01/14 08:24:41;;;;;;;100.35;32.25;;;3.10;99.90;;;;;;5044576;28;20047;-72
2024/01/14 08:27:07;;;;;;;93.68;30.20;;;3.10;99.90;;;;;;5042331;28;20025;-72
2024/01/14 08:29:32;;;;;;;91.10;29.63;;;3.00;99.90;;;;;;5045132;28;20021;-72
2024/01/14 08:31:58;;;;;;;93.00;32.33;;;3.00;99.90;;;;;;5044823;28;20032;-72
2024/01/14 08:34:25;;;;;;;83.68;28.50;;;3.10;99.90;;;;;;5042293;28;20053;-72
2024/01/14 08:36:50;;;;;;;93.85;31.23;;;3.10;99.90;;;;;;5040334;28;20021;-72
2024/01/14 08:39:16;;;;;;;82.30;27.48;;;3.10;99.90;;;;;;5045875;28;20039;-72
2024/01/14 08:41:42;;;;;;;92.45;29.02;;;3.00;99.90;;;;;;5040511;28;20413;-72
2024/01/14 08:44:17;;;;;;;91.18;27.17;;;3.00;99.90;;;;;;5042948;28;20473;-72
2024/01/14 08:46:47;;;;;;;90.93;29.38;;;3.00;99.90;;;;;;5043487;28;20382;-72
2024/01/14 08:49:16;;;;;;;90.03;27.88;;;3.10;99.90;;;;;;5042205;28;20033;-71
2024/01/14 08:51:42;;;;;;;78.70;26.73;;;3.10;99.90;;;;;;5040414;28;20041;-71
2024/01/14 08:54:08;;;;;;;78.35;26.67;;;3.00;99.90;;;;;;5038382;28;20025;-71
2024/01/14 08:56:33;;;;;;;84.18;27.02;;;3.00;99.90;;;;;;5043776;28;20494;-71
2024/01/14 08:58:59;;;;;;;81.57;27.20;;;3.00;99.90;;;;;;5042159;28;20025;-71
2024/01/14 09:01:26;;;;;;;97.20;31.70;;;2.90;99.90;;;;;;5016266;28;20669;-72
2024/01/14 09:03:52;;;;;;;96.60;28.42;;;2.90;99.90;;;;;;5014695;28;20021;-71
2024/01/14 09:06:17;;;;;;;86.53;28.38;;;3.10;99.90;;;;;;5030405;28;20039;-72
2024/01/14 09:08:43;;;;;;;88.45;30.65;;;3.00;99.90;;;;;;5035076;28;20025;-71
2024/01/14 09:11:09;;;;;;;82.88;27.33;;;3.00;99.90;;;;;;5033800;28;20068;-71
2024/01/14 09:13:35;;;;;;;88.35;27.98;;;3.00;99.90;;;;;;5033623;28;20033;-72
2024/01/14 09:16:01;;;;;;;82.15;26.98;;;3.00;99.90;;;;;;5033013;28;20028;-72
2024/01/14 09:18:27;;;;;;;88.28;30.13;;;3.10;99.90;;;;;;5033611;28;20564;-72
2024/01/14 09:20:53;;;;;;;90.90;29.73;;;3.00;99.90;;;;;;5035318;28;20502;-71
2024/01/14 09:23:19;;;;;;;85.90;30.08;;;3.00;99.90;;;;;;5034039;28;20041;-71
2024/01/14 09:25:45;;;;;;;87.75;30.27;;;3.00;99.90;;;;;;5033909;28;20025;-70
2024/01/14 09:28:11;;;;;;;83.50;28.67;;;3.00;99.90;;;;;;5034352;28;20390;-71
2024/01/14 09:30:38;;;;;;;91.85;29.92;;;3.10;99.90;;;;;;5034682;28;20025;-71
2024/01/14 09:33:04;;;;;;;89.95;30.05;;;3.10;99.90;;;;;;5031425;28;20029;-72
2024/01/14 09:35:29;;;;;;;95.47;31.38;;;3.10;99.90;;;;;;5033839;28;20078;-71
2024/01/14 09:37:55;;;;;;;92.28;31.33;;;3.00;99.90;;;;;;5029502;28;20029;-71
2024/01/14 09:40:21;;;;;;;104.05;32.72;;;3.00;99.90;;;;;;5038885;28;20367;-71
2024/01/14 09:42:49;;;;;;;90.85;30.48;;;3.10;99.90;;;;;;5033196;28;20255;-71
2024/01/14 09:45:16;;;;;;;101.63;33.00;;;3.20;99.90;;;;;;5033566;28;20116;-71
2024/01/14 09:47:42;;;;;;;106.43;32.80;;;3.30;99.90;;;;;;5033610;28;20364;-70
2024/01/14 09:50:10;;;;;;;109.45;34.50;;;3.20;99.90;;;;;;5031059;28;20552;-71
2024/01/14 09:52:39;;;;;;;103.93;32.78;;;3.10;99.90;;;;;;5035112;28;20029;-71
2024/01/14 09:55:06;;;;;;;105.00;34.92;;;3.20;99.90;;;;;;5030243;28;20025;-72
2024/01/14 09:57:33;;;;;;;113.78;34.17;;;3.10;99.90;;;;;;5033614;28;20057;-72
2024/01/14 10:00:06;;;;;;;118.13;36.55;;;3.10;99.90;;;;;;5031324;28;20089;-72
2024/01/14 10:02:33;;;;;;;116.35;35.08;;;3.10;99.90;;;;;;5032254;28;20037;-72
2024/01/14 10:04:59;;;;;;;111.75;34.47;;;3.10;99.90;;;;;;5030723;28;20021;-72
2024/01/14 10:07:26;;;;;;;106.63;33.85;;;3.10;99.90;;;;;;5030482;28;20037;-71
2024/01/14 10:09:52;;;;;;;107.00;34.97;;;3.10;99.90;;;;;;5028273;28;20075;-72
2024/01/14 10:12:18;;;;;;;111.68;34.33;;;3.10;99.90;;;;;;5032446;28;20443;-71
2024/01/14 10:14:45;;;;;;;106.53;36.15;;;3.10;99.90;;;;;;5034631;28;20497;-71
2024/01/14 10:17:14;;;;;;;107.15;36.92;;;3.20;99.90;;;;;;5033945;28;20102;-72
2024/01/14 10:19:39;;;;;;;103.68;32.33;;;3.20;99.90;;;;;;5035747;28;20490;-71
2024/01/14 10:22:06;;;;;;;99.85;32.97;;;3.20;99.90;;;;;;5035767;28;20044;-71
2024/01/14 10:24:33;;;;;;;115.50;34.10;;;3.20;99.90;;;;;;5036268;28;20040;-71
2024/01/14 10:26:58;;;;;;;99.57;33.38;;;3.20;99.90;;;;;;5037030;28;20105;-71
2024/01/14 10:29:24;;;;;;;103.93;33.47;;;3.20;99.90;;;;;;5035405;28;20096;-70
2024/01/14 10:31:50;;;;;;;102.90;34.15;;;3.20;99.90;;;;;;5038930;28;20510;-70
2024/01/14 10:34:17;;;;;;;110.15;35.38;;;3.20;99.90;;;;;;5036642;28;20033;-70
2024/01/14 10:36:43;;;;;;;108.97;34.72;;;3.10;99.90;;;;;;5038946;28;20032;-70
2024/01/14 10:39:11;;;;;;;102.72;34.63;;;3.30;99.90;;;;;;5037488;28;20382;-70
2024/01/14 10:41:37;;;;;;;108.95;36.00;;;3.30;99.90;;;;;;5041065;28;20043;-70
2024/01/14 10:44:02;;;;;;;97.93;33.00;;;3.20;99.90;;;;;;5035730;28;20390;-70
2024/01/14 10:46:34;;;;;;;102.50;33.28;;;3.20;99.90;;;;;;5039044;28;20060;-71
2024/01/14 10:49:06;;;;;;;95.93;33.17;;;3.20;99.90;;;;;;5034722;28;20021;-72
2024/01/14 10:51:38;;;;;;;107.60;34.13;;;3.20;99.90;;;;;;5037938;28;20049;-72
2024/01/14 10:54:31;;;;;;;102.75;33.80;;;3.20;99.90;;;;;;5038018;28;20021;-72
2024/01/14 10:57:26;;;;;;;102.63;31.88;;;3.30;99.90;;;;;;5036067;28;20371;-72
2024/01/14 11:00:00;;;;;;;99.28;33.55;;;3.20;99.90;;;;;;5030668;28;20025;-72
2024/01/14 11:02:28;;;;;;;93.78;32.05;;;3.20;99.90;;;;;;5035760;28;20041;-73
2024/01/14 11:04:55;;;;;;;99.90;33.35;;;3.30;99.90;;;;;;5034703;28;20032;-72
2024/01/14 11:07:22;;;;;;;100.45;32.10;;;3.30;99.90;;;;;;5037582;28;20434;-72
2024/01/14 11:09:49;;;;;;;100.38;35.45;;;3.30;99.90;;;;;;5037684;28;20048;-72
2024/01/14 11:12:29;;;;;;;106.95;32.35;;;3.30;99.90;;;;;;5037211;28;20470;-72
2024/01/14 11:15:05;;;;;;;106.35;35.45;;;3.30;99.90;;;;;;5031829;28;20079;-72
2024/01/14 11:17:54;;;;;;;108.57;34.13;;;3.30;99.90;;;;;;5038983;28;20481;-72
2024/01/14 11:20:24;;;;;;;105.43;31.67;;;3.40;99.90;;;;;;5035462;28;20112;-71
2024/01/14 11:22:51;;;;;;;109.40;35.05;;;3.30;99.90;;;;;;5036575;28;20085;-71
2024/01/14 11:25:22;;;;;;;96.88;32.45;;;3.30;99.90;;;;;;5034966;28;20561;-72
2024/01/14 11:27:48;;;;;;;109.95;34.53;;;3.30;99.90;;;;;;5036005;28;20581;-73
2024/01/14 11:30:18;;;;;;;107.57;33.50;;;3.50;99.90;;;;;;5035258;28;20021;-72
2024/01/14 11:32:44;;;;;;;111.25;34.25;;;3.40;99.90;;;;;;5034477;28;20108;-72
2024/01/14 11:35:11;;;;;;;105.45;35.08;;;3.40;99.90;;;;;;5032930;28;20108;-71
2024/01/14 11:37:40;;;;;;;106.10;34.08;;;3.30;99.90;;;;;;5033877;28;20024;-70
2024/01/14 11:40:06;;;;;;;103.03;32.88;;;3.40;99.90;;;;;;5035266;28;20040;-70
2024/01/14 11:42:32;;;;;;;107.25;32.92;;;3.40;99.90;;;;;;5036187;28;20041;-70
2024/01/14 11:45:02;;;;;;;98.20;32.40;;;3.40;99.90;;;;;;5038888;28;20029;-71
2024/01/14 11:47:45;;;;;;;120.65;35.13;;;3.40;99.90;;;;;;5035329;28;20028;-71
2024/01/14 11:50:13;;;;;;;106.97;32.92;;;3.40;99.90;;;;;;5037025;28;20025;-71
2024/01/14 11:52:50;;;;;;;99.28;33.55;;;3.30;99.90;;;;;;5034742;28;20034;-71
2024/01/14 11:55:24;;;;;;;100.75;35.10;;;3.40;99.90;;;;;;5034421;28;20057;-71
2024/01/14 11:57:51;;;;;;;90.88;30.80;;;3.20;99.90;;;;;;5037185;28;20014;-71
2024/01/14 12:00:22;;;;;;;102.32;34.08;;;3.20;99.90;;;;;;5035438;28;20521;-71
2024/01/14 12:02:47;;;;;;;98.40;34.08;;;3.30;99.90;;;;;;5036118;28;20033;-70
2024/01/14 12:05:16;;;;;;;95.03;31.35;;;3.30;99.90;;;;;;5030789;28;20043;-70
2024/01/14 12:07:43;;;;;;;101.72;32.65;;;3.30;99.90;;;;;;5035664;28;20053;-70
2024/01/14 12:10:13;;;;;;;103.95;33.33;;;3.30;99.90;;;;;;5035123;28;20031;-70
2024/01/14 12:12:39;;;;;;;99.50;31.95;;;3.40;99.90;;;;;;5037786;28;20028;-71
2024/01/14 12:15:05;;;;;;;92.63;33.17;;;3.40;99.90;;;;;;5034240;28;20280;-71
2024/01/14 12:17:31;;;;;;;94.35;33.10;;;3.40;99.90;;;;;;5032690;28;20040;-70
2024/01/14 12:20:01;;;;;;;92.25;32.83;;;3.30;99.90;;;;;;5032765;28;20032;-70
2024/01/14 12:22:27;;;;;;;89.15;30.48;;;3.40;99.90;;;;;;5037328;28;20048;-71
2024/01/14 12:24:54;;;;;;;88.47;31.58;;;3.20;99.90;;;;;;5033190;28;20104;-70
2024/01/14 12:27:20;;;;;;;88.57;29.08;;;3.30;99.90;;;;;;5036489;28;20079;-70